This is the latest recevied weather packets stored in our database for station/object YG1CIC-13. If no packets are shown the sender has not sent any weather packets the latest 10 day(s).
| Time | Temp. | Humidity | Pressure | Rain* | Wind** | Luminosity | Snow |
|---|---|---|---|---|---|---|---|
| 1777020534 | 34.44° C | 64% | - | 0 mm | - | - | - |
| 1777019933 | 35.56° C | 65% | - | 0 mm | - | - | - |
| 1777019332 | 35.56° C | 65% | - | 0 mm | - | - | - |
| 1777018732 | 35.56° C | 64% | - | 0 mm | - | - | - |
| 1777018131 | 35.56° C | 64% | - | 0 mm | - | - | - |
| 1777017531 | 35.56° C | 64% | - | 0 mm | - | - | - |
| 1777016930 | 35.56° C | 61% | - | 0 mm | - | - | - |
| 1777016329 | 35.56° C | 60% | - | 0 mm | - | - | - |
| 1777015736 | 35.56° C | 61% | - | 0 mm | - | - | - |
| 1777015128 | 36.67° C | 59% | - | 0 mm | - | - | - |
| 1777014528 | 36.11° C | 61% | - | 0 mm | - | - | - |
| 1777013927 | 36.67° C | 60% | - | 0 mm | - | - | - |
| 1777013327 | 36.11° C | 59% | - | 0 mm | - | - | - |
| 1777012726 | 35.56° C | 58% | - | 0 mm | - | - | - |
| 1777012125 | 36.67° C | 56% | - | 0 mm | - | - | - |
| 1777011525 | 37.78° C | 56% | - | 0 mm | - | - | - |
| 1777010924 | 36.67° C | 57% | - | 0 mm | - | - | - |
| 1777010323 | 37.22° C | 57% | - | 0 mm | - | - | - |
| 1777009723 | 35.56° C | 61% | - | 0 mm | - | - | - |
| 1777009122 | 35° C | 63% | - | 0 mm | - | - | - |
| 1777008522 | 35° C | 61% | - | 0 mm | - | - | - |
| 1777007921 | 36.11° C | 60% | - | 0 mm | - | - | - |
| 1777007320 | 35.56° C | 61% | - | 0 mm | - | - | - |
| 1777006720 | 35.56° C | 61% | - | 0 mm | - | - | - |
| 1777006119 | 36.67° C | 59% | - | 0 mm | - | - | - |
* Rain latest hour (hover to see other rain measurements)
** Current wind speed in m/s (hover to see current wind gust speed)